createdAt,value
2022-09-05T00:00:30.808Z,90.8
2022-09-05T00:01:30.899Z,90.5
2022-09-05T00:02:30.898Z,91.8
2022-09-05T00:03:31.284Z,91.5
2022-09-05T00:04:30.956Z,91.4
2022-09-05T00:05:30.818Z,90.9
2022-09-05T00:06:30.797Z,90.6
2022-09-05T00:07:43.329Z,90.8
2022-09-05T00:08:30.793Z,91.5
2022-09-05T00:09:30.838Z,90.4
2022-09-05T00:10:36.103Z,90.5
2022-09-05T00:11:40.349Z,90.5
2022-09-05T00:12:30.823Z,90.5
2022-09-05T00:13:30.796Z,89.2
2022-09-05T00:14:34.353Z,88.9
2022-09-05T00:15:30.837Z,90
2022-09-05T00:16:30.837Z,89.2
2022-09-05T00:18:07.933Z,88.9
2022-09-05T00:21:51.165Z,88.5
2022-09-05T00:24:18.582Z,89.7
2022-09-05T00:24:19.806Z,89.6
2022-09-05T00:24:30.374Z,88.3
2022-09-05T00:24:30.624Z,88
2022-09-05T00:24:37.725Z,87.8
2022-09-05T00:25:32.483Z,88.2
2022-09-05T00:26:30.936Z,88.3
2022-09-05T00:27:30.855Z,88.1
2022-09-05T00:28:30.937Z,87.6
2022-09-05T00:30:41.946Z,87.8
2022-09-05T00:31:07.351Z,87.2
2022-09-05T00:31:55.346Z,87.5
2022-09-05T00:32:30.931Z,87.5
2022-09-05T00:33:31.395Z,87.8
2022-09-05T00:34:47.411Z,87.6
2022-09-05T00:35:30.837Z,87.2
2022-09-05T00:36:30.797Z,87.3
2022-09-05T00:37:30.916Z,87.8
2022-09-05T00:38:36.535Z,87.4
2022-09-05T00:39:30.878Z,87.8
2022-09-05T00:40:30.873Z,87.2
2022-09-05T00:41:32.902Z,87.2
2022-09-05T00:42:30.851Z,87.7
2022-09-05T00:43:30.840Z,87.6
2022-09-05T00:44:30.797Z,87.8
2022-09-05T00:45:30.806Z,88
2022-09-05T00:46:32.103Z,87.7
2022-09-05T00:47:30.814Z,87.8
2022-09-05T00:48:30.816Z,88.3
2022-09-05T00:49:30.821Z,88.2
2022-09-05T00:50:30.862Z,88
2022-09-05T00:51:34.441Z,87.8
2022-09-05T00:52:30.817Z,88.8
2022-09-05T00:53:30.805Z,88.4
2022-09-05T00:54:40.516Z,89.4
2022-09-05T00:55:30.818Z,90.6
2022-09-05T00:56:30.798Z,90.7
2022-09-05T00:57:30.849Z,89.4
2022-09-05T00:58:33.981Z,90.1
2022-09-05T00:59:30.824Z,89.8
2022-09-05T01:00:30.826Z,90.1
2022-09-05T01:01:31.125Z,90.1
2022-09-05T01:02:31.185Z,90.2
2022-09-05T01:03:30.813Z,90.7
2022-09-05T01:04:30.801Z,90.3
2022-09-05T01:05:30.860Z,91.3
2022-09-05T01:06:30.855Z,91.2
2022-09-05T01:07:30.814Z,91.3
2022-09-05T01:08:30.817Z,92.1
2022-09-05T01:09:30.823Z,91.9
2022-09-05T01:10:30.821Z,91.9
2022-09-05T01:11:30.802Z,91.6
2022-09-05T01:12:30.830Z,92.3
2022-09-05T01:13:30.822Z,92.1
2022-09-05T01:14:30.863Z,92.6
2022-09-05T01:15:32.805Z,92.5
2022-09-05T01:16:30.818Z,92.9
2022-09-05T01:17:30.809Z,93.7
2022-09-05T01:18:30.820Z,93.9
2022-09-05T01:19:30.847Z,94.2
2022-09-05T01:20:31.528Z,94.4
2022-09-05T01:21:30.870Z,94.2
2022-09-05T01:22:30.845Z,94.3
2022-09-05T01:23:30.824Z,95.3
2022-09-05T01:24:30.824Z,96.4
2022-09-05T01:25:30.823Z,95.9
2022-09-05T01:26:30.822Z,95.6
2022-09-05T01:27:35.155Z,95.8
2022-09-05T01:29:16.939Z,95.5
2022-09-05T01:29:30.879Z,94.7
2022-09-05T01:30:32.075Z,94
2022-09-05T01:31:30.894Z,94.5
2022-09-05T01:32:30.839Z,93.9
2022-09-05T01:33:30.824Z,94.4
2022-09-05T01:34:31.747Z,93.9
2022-09-05T01:35:30.811Z,94.1
2022-09-05T01:36:30.831Z,95.1
2022-09-05T01:37:33.517Z,94.5
2022-09-05T01:38:30.819Z,95.2
2022-09-05T01:40:12.289Z,95.2
2022-09-05T01:40:30.873Z,95.9
2022-09-05T01:41:30.868Z,95.7
2022-09-05T01:42:31.639Z,95.4
2022-09-05T01:43:30.821Z,95.8
2022-09-05T01:44:30.863Z,96.6
2022-09-05T01:45:39.339Z,96.4
2022-09-05T01:46:30.861Z,96.3
2022-09-05T01:47:31.391Z,96.6
2022-09-05T01:48:30.830Z,97.2
2022-09-05T01:49:30.817Z,96.6
2022-09-05T01:50:30.888Z,96.9
2022-09-05T01:51:31.457Z,97.6
2022-09-05T01:52:30.876Z,97.9
2022-09-05T01:53:30.866Z,97.9
2022-09-05T01:54:30.841Z,98.2
2022-09-05T01:55:30.826Z,98.1
2022-09-05T01:56:30.839Z,97.6
2022-09-05T01:57:30.832Z,98.2
2022-09-05T01:58:31.959Z,98.8
2022-09-05T01:59:30.819Z,99.2
2022-09-05T02:00:30.874Z,100
2022-09-05T02:01:32.495Z,100
2022-09-05T02:02:30.976Z,99.2
2022-09-05T02:03:30.836Z,100
2022-09-05T02:04:30.838Z,100
2022-09-05T02:05:49.219Z,100
2022-09-05T02:06:30.816Z,100
2022-09-05T02:07:31.753Z,100
2022-09-05T02:08:30.876Z,100
2022-09-05T02:09:30.844Z,100
2022-09-05T02:10:30.928Z,100
2022-09-05T02:11:35.694Z,100
2022-09-05T02:12:30.820Z,100
2022-09-05T02:13:30.835Z,100
2022-09-05T02:14:34.359Z,100
2022-09-05T02:15:30.888Z,100
2022-09-05T02:16:30.863Z,100
2022-09-05T02:17:49.512Z,100
2022-09-05T02:18:30.839Z,100
2022-09-05T02:19:30.845Z,100
2022-09-05T02:20:30.860Z,100
2022-09-05T02:21:30.826Z,100
2022-09-05T02:22:30.826Z,100
2022-09-05T02:23:40.663Z,100
2022-09-05T02:24:31.058Z,100
2022-09-05T02:26:01.574Z,100
2022-09-05T02:26:30.829Z,100
2022-09-05T02:27:53.571Z,100
2022-09-05T02:28:30.840Z,100
2022-09-05T02:29:30.829Z,100
2022-09-05T02:30:30.875Z,100
2022-09-05T02:31:30.913Z,100
2022-09-05T02:32:30.884Z,100
2022-09-05T02:33:30.844Z,100
2022-09-05T02:34:30.841Z,100
2022-09-05T02:35:30.907Z,100
2022-09-05T02:36:30.838Z,100
2022-09-05T02:38:38.001Z,100
2022-09-05T02:39:54.882Z,100
2022-09-05T02:45:04.017Z,100
2022-09-05T02:45:06.538Z,100
2022-09-05T02:45:11.751Z,100
2022-09-05T02:45:12.506Z,100
2022-09-05T02:45:17.415Z,100
2022-09-05T02:45:21.698Z,100
2022-09-05T02:45:31.450Z,100
2022-09-05T02:46:31.179Z,100
2022-09-05T02:47:30.888Z,100
2022-09-05T02:48:30.844Z,100
2022-09-05T02:50:33.353Z,100
2022-09-05T02:54:27.694Z,100
2022-09-05T02:57:23.366Z,100
2022-09-05T02:57:26.120Z,100
2022-09-05T02:57:32.961Z,100
2022-09-05T02:57:33.268Z,100
2022-09-05T02:57:40.617Z,100
2022-09-05T02:57:42.881Z,100
2022-09-05T02:58:05.265Z,100
2022-09-05T02:58:47.855Z,100
2022-09-05T02:59:36.430Z,100
2022-09-05T03:00:30.863Z,100
2022-09-05T03:01:30.867Z,100
2022-09-05T03:02:30.908Z,100
2022-09-05T03:03:30.964Z,100
2022-09-05T03:04:30.843Z,100
2022-09-05T03:05:30.849Z,100
2022-09-05T03:06:35.085Z,100
2022-09-05T03:07:30.834Z,100
2022-09-05T03:08:30.840Z,100
2022-09-05T03:09:30.848Z,100
2022-09-05T03:10:54.592Z,100
2022-09-05T03:11:30.857Z,100
2022-09-05T03:12:30.848Z,100
2022-09-05T03:13:30.849Z,100
2022-09-05T03:14:30.847Z,100
2022-09-05T03:15:31.019Z,100
2022-09-05T03:16:30.940Z,100
2022-09-05T03:17:30.858Z,100
2022-09-05T03:18:30.896Z,100
2022-09-05T03:19:30.832Z,100
2022-09-05T03:20:30.892Z,100
2022-09-05T03:21:30.854Z,100
2022-09-05T03:22:33.694Z,100
2022-09-05T03:23:33.267Z,100
2022-09-05T03:24:30.906Z,100
2022-09-05T03:25:30.918Z,100
2022-09-05T03:26:30.918Z,100
2022-09-05T03:27:30.843Z,100
2022-09-05T03:28:30.860Z,100
2022-09-05T03:29:30.846Z,100
2022-09-05T03:30:30.872Z,100
2022-09-05T03:31:30.991Z,100
2022-09-05T03:32:30.853Z,100
2022-09-05T03:33:30.895Z,100
2022-09-05T03:34:30.891Z,100
2022-09-05T03:35:30.888Z,100
2022-09-05T03:36:30.836Z,100
2022-09-05T03:37:31.632Z,100
2022-09-05T03:38:30.854Z,100
2022-09-05T03:39:30.892Z,100
2022-09-05T03:40:30.845Z,100
2022-09-05T03:41:39.932Z,100
2022-09-05T03:42:31.263Z,100
2022-09-05T03:43:30.849Z,100
2022-09-05T03:44:30.851Z,100
2022-09-05T03:45:36.987Z,100
2022-09-05T03:46:30.912Z,100
2022-09-05T03:47:30.851Z,100
2022-09-05T03:48:30.944Z,100
2022-09-05T03:52:16.809Z,100
2022-09-05T03:53:11.509Z,100
2022-09-05T03:57:05.025Z,100
2022-09-05T03:57:07.376Z,100
2022-09-05T03:57:14.634Z,100
2022-09-05T03:57:18.470Z,100
2022-09-05T03:57:24.065Z,100
2022-09-05T03:57:26.847Z,100
2022-09-05T03:57:41.438Z,100
2022-09-05T03:58:55.507Z,100
2022-09-05T03:59:31.091Z,100
2022-09-05T04:00:30.848Z,100
2022-09-05T04:03:30.811Z,100
2022-09-05T04:07:53.185Z,100
2022-09-05T04:08:08.353Z,100
2022-09-05T04:08:11.269Z,100
2022-09-05T04:08:14.027Z,100
2022-09-05T04:08:16.194Z,100
2022-09-05T04:08:27.683Z,100
2022-09-05T04:08:41.866Z,100
2022-09-05T04:09:49.697Z,100
2022-09-05T04:10:31.016Z,100
2022-09-05T04:11:30.844Z,100
2022-09-05T04:12:30.894Z,100
2022-09-05T04:13:30.871Z,100
2022-09-05T04:14:30.856Z,100
2022-09-05T04:15:30.870Z,100
2022-09-05T04:16:30.935Z,100
2022-09-05T04:17:30.850Z,100
2022-09-05T04:18:33.800Z,100
2022-09-05T04:19:30.881Z,100
2022-09-05T04:20:30.896Z,100
2022-09-05T04:21:30.857Z,100
2022-09-05T04:22:30.868Z,100
2022-09-05T04:23:30.853Z,100
2022-09-05T04:24:30.856Z,100
2022-09-05T04:25:30.850Z,100
2022-09-05T04:26:30.844Z,100
2022-09-05T04:27:30.916Z,100
2022-09-05T04:28:30.897Z,100
2022-09-05T04:29:30.856Z,100
2022-09-05T04:30:38.217Z,100
2022-09-05T04:31:30.912Z,100
2022-09-05T04:32:30.942Z,100
2022-09-05T04:33:35.867Z,100
2022-09-05T04:34:30.853Z,100
2022-09-05T04:35:30.912Z,100
2022-09-05T04:36:30.901Z,100
2022-09-05T04:37:37.188Z,100
2022-09-05T04:38:30.862Z,100
2022-09-05T04:39:30.918Z,100
2022-09-05T04:40:32.942Z,100
2022-09-05T04:41:37.649Z,100
2022-09-05T04:42:30.864Z,100
2022-09-05T04:43:30.929Z,100
2022-09-05T04:44:30.965Z,100
2022-09-05T04:45:30.930Z,100
2022-09-05T04:46:30.965Z,100
2022-09-05T04:47:30.883Z,100
2022-09-05T04:48:30.847Z,100
2022-09-05T04:49:30.902Z,100
2022-09-05T04:50:37.636Z,100
2022-09-05T04:51:30.905Z,100
2022-09-05T04:52:31.809Z,100
2022-09-05T04:53:30.870Z,100
2022-09-05T04:54:30.882Z,100
2022-09-05T04:55:30.859Z,100
2022-09-05T04:56:30.856Z,100
2022-09-05T04:57:30.873Z,100
2022-09-05T04:59:00.094Z,100
2022-09-05T05:03:12.937Z,100
2022-09-05T05:06:04.118Z,100
2022-09-05T05:06:05.378Z,100
2022-09-05T05:06:05.741Z,100
2022-09-05T05:06:09.244Z,100
2022-09-05T05:06:10.848Z,100
2022-09-05T05:06:16.910Z,100
2022-09-05T05:06:46.054Z,100
2022-09-05T05:07:31.029Z,100
2022-09-05T05:08:39.017Z,100
2022-09-05T05:09:30.863Z,100
2022-09-05T05:12:08.862Z,100
2022-09-05T05:18:00.142Z,100
2022-09-05T05:18:02.174Z,100
2022-09-05T05:18:03.732Z,100
2022-09-05T05:18:11.814Z,100
2022-09-05T05:18:13.564Z,100
2022-09-05T05:18:14.077Z,100
2022-09-05T05:18:16.392Z,100
2022-09-05T05:18:37.783Z,100
2022-09-05T05:19:30.992Z,100
2022-09-05T05:20:42.354Z,100
2022-09-05T05:21:30.890Z,100
2022-09-05T05:22:31.064Z,100
2022-09-05T05:23:30.872Z,100
2022-09-05T05:24:30.881Z,100
2022-09-05T05:25:30.879Z,100
2022-09-05T05:26:30.922Z,100
2022-09-05T05:27:30.861Z,100
2022-09-05T05:28:30.871Z,100
2022-09-05T05:29:30.872Z,100
2022-09-05T05:30:30.943Z,100
2022-09-05T05:31:30.941Z,100
2022-09-05T05:32:43.543Z,100
2022-09-05T05:33:30.870Z,100
2022-09-05T05:34:30.880Z,100
2022-09-05T05:35:30.880Z,100
2022-09-05T05:36:30.871Z,100
2022-09-05T05:37:30.934Z,100
2022-09-05T05:38:30.928Z,100
2022-09-05T05:39:30.970Z,100
2022-09-05T05:40:31.774Z,100
2022-09-05T05:41:30.909Z,100
2022-09-05T05:42:30.881Z,100
2022-09-05T05:43:30.875Z,100
2022-09-05T05:44:30.885Z,100
2022-09-05T05:45:30.927Z,100
2022-09-05T05:46:31.012Z,100
2022-09-05T05:47:31.772Z,100
2022-09-05T05:48:30.877Z,100
2022-09-05T05:49:30.888Z,100
2022-09-05T05:50:30.880Z,100
2022-09-05T05:51:34.766Z,100
2022-09-05T05:52:30.913Z,100
2022-09-05T05:53:42.393Z,100
2022-09-05T05:54:30.921Z,100
2022-09-05T05:55:51.465Z,100
2022-09-05T05:56:31.217Z,100
2022-09-05T05:57:30.927Z,100
2022-09-05T05:58:32.714Z,100
2022-09-05T05:59:30.880Z,100
2022-09-05T06:00:30.961Z,100
2022-09-05T06:01:37.866Z,100
2022-09-05T06:02:31.016Z,100
2022-09-05T06:03:31.014Z,100
2022-09-05T06:04:30.880Z,100
2022-09-05T06:05:30.884Z,100
2022-09-05T06:06:30.930Z,100
2022-09-05T06:07:40.746Z,100
2022-09-05T06:12:17.544Z,100
2022-09-05T06:14:51.353Z,100
2022-09-05T06:14:55.800Z,100
2022-09-05T06:14:56.050Z,100
2022-09-05T06:14:56.592Z,100
2022-09-05T06:14:57.482Z,100
2022-09-05T06:14:59.696Z,100
2022-09-05T06:15:31.957Z,100
2022-09-05T06:16:30.945Z,100
2022-09-05T06:17:30.921Z,100
2022-09-05T06:18:30.886Z,100
2022-09-05T06:19:39.151Z,100
2022-09-05T06:22:04.922Z,100
2022-09-05T06:22:11.119Z,100
2022-09-05T06:22:31.022Z,100
2022-09-05T06:23:38.846Z,100
2022-09-05T06:24:31.228Z,100
2022-09-05T06:25:31.201Z,100
2022-09-05T06:26:30.892Z,100
2022-09-05T06:27:30.928Z,99.7
2022-09-05T06:28:30.892Z,98.6
2022-09-05T06:29:37.971Z,99.3
2022-09-05T06:30:31.067Z,98.6
2022-09-05T06:31:31.859Z,98.4
2022-09-05T06:32:30.946Z,97.8
2022-09-05T06:33:30.919Z,98.5
2022-09-05T06:34:35.857Z,98.6
2022-09-05T06:35:30.881Z,97.8
2022-09-05T06:36:30.929Z,97.6
2022-09-05T06:37:30.936Z,97
2022-09-05T06:38:30.904Z,97.7
2022-09-05T06:39:30.908Z,97.6
2022-09-05T06:40:32.303Z,99
2022-09-05T06:41:30.887Z,98.4
2022-09-05T06:42:43.265Z,96.7
2022-09-05T06:43:30.898Z,94.3
2022-09-05T06:44:30.948Z,93
2022-09-05T06:45:30.901Z,93.9
2022-09-05T06:46:54.238Z,93.3
2022-09-05T06:47:33.318Z,93.6
2022-09-05T06:48:38.269Z,93.1
2022-09-05T06:49:37.387Z,92.4
2022-09-05T06:50:30.900Z,92.6
2022-09-05T06:51:30.892Z,91.9
2022-09-05T06:52:30.886Z,91.6
2022-09-05T06:53:31.076Z,92.5
2022-09-05T06:54:32.589Z,91.7
2022-09-05T06:55:30.905Z,91.5
2022-09-05T06:56:30.930Z,91.5
2022-09-05T06:57:30.897Z,93
2022-09-05T06:58:30.996Z,92.7
2022-09-05T06:59:30.896Z,93.2
2022-09-05T07:00:30.957Z,93.1
2022-09-05T07:02:00.735Z,91
2022-09-05T07:02:59.108Z,89.2
2022-09-05T07:03:32.395Z,88.4
2022-09-05T07:04:49.481Z,89.3
2022-09-05T07:05:39.577Z,89.1
2022-09-05T07:06:59.365Z,90.3
2022-09-05T07:07:30.934Z,89.2
2022-09-05T07:08:36.224Z,89.1
2022-09-05T07:09:30.897Z,90.3
2022-09-05T07:10:39.340Z,90.4
2022-09-05T07:11:30.952Z,88.7
2022-09-05T07:12:30.936Z,89.2
2022-09-05T07:13:30.896Z,88.5
2022-09-05T07:19:30.943Z,85.2
2022-09-05T07:20:30.910Z,85.3
2022-09-05T07:21:30.884Z,85.4
2022-09-05T07:22:47.511Z,85.7
2022-09-05T07:23:57.819Z,86.3
2022-09-05T07:24:55.304Z,87.1
2022-09-05T07:25:33.181Z,86.6
2022-09-05T07:26:52.029Z,85.5
2022-09-05T07:27:30.939Z,85.9
2022-09-05T07:28:30.905Z,87.6
2022-09-05T07:29:30.909Z,87
2022-09-05T07:30:30.897Z,85.7
2022-09-05T07:31:37.842Z,84
2022-09-05T07:32:30.912Z,83.8
2022-09-05T07:33:30.903Z,84.7
2022-09-05T07:34:30.951Z,83.2
2022-09-05T07:35:34.668Z,82.6
2022-09-05T07:36:30.898Z,83.1
2022-09-05T07:37:30.899Z,83.3
2022-09-05T07:38:41.874Z,84.4
2022-09-05T07:39:30.998Z,82.9
2022-09-05T07:40:30.942Z,81.1
2022-09-05T07:41:30.924Z,80.4
2022-09-05T07:42:30.950Z,79.6
2022-09-05T07:43:30.932Z,78.6
2022-09-05T07:44:30.897Z,78.1
2022-09-05T07:45:30.964Z,79.7
2022-09-05T07:46:30.930Z,80.4
2022-09-05T07:47:30.895Z,79.6
2022-09-05T07:48:35.033Z,79
2022-09-05T07:49:31.178Z,78.8
2022-09-05T07:53:18.676Z,77.7
2022-09-05T07:56:50.903Z,76.6
2022-09-05T07:56:50.997Z,76.4
2022-09-05T07:56:51.427Z,77.1
2022-09-05T07:56:55.881Z,77.1
2022-09-05T07:57:00.084Z,76.7
2022-09-05T07:57:01.327Z,76
2022-09-05T07:57:31.942Z,77.3
2022-09-05T07:58:30.963Z,76.8
2022-09-05T07:59:30.975Z,76.2
2022-09-05T08:00:30.982Z,76.5
2022-09-05T08:01:31.043Z,75.4
2022-09-05T08:02:30.895Z,75.3
2022-09-05T08:03:31.023Z,75.6
2022-09-05T08:04:31.119Z,75.2
2022-09-05T08:05:35.495Z,74.5
2022-09-05T08:07:45.533Z,75.1
2022-09-05T08:07:46.595Z,74
2022-09-05T08:08:31.230Z,73.6
2022-09-05T08:10:06.175Z,73.4
2022-09-05T08:10:59.209Z,73
2022-09-05T08:11:31.052Z,73
2022-09-05T08:12:31.199Z,74.9
2022-09-05T08:13:31.381Z,73.1
2022-09-05T08:14:45.022Z,71.5
2022-09-05T08:16:00.703Z,71.7
2022-09-05T08:16:30.936Z,70.6
2022-09-05T08:17:30.924Z,70.4
2022-09-05T08:18:30.916Z,69.2
2022-09-05T08:19:30.972Z,68.5
2022-09-05T08:20:30.914Z,68.5
2022-09-05T08:21:30.964Z,67.6
2022-09-05T08:22:30.935Z,69.4
2022-09-05T08:23:30.910Z,70.7
2022-09-05T08:24:30.915Z,70.5
2022-09-05T08:25:37.650Z,70.5
2022-09-05T08:26:30.908Z,68.7
2022-09-05T08:27:30.902Z,68.9
2022-09-05T08:28:33.393Z,68.5
2022-09-05T08:29:31.007Z,68.7
2022-09-05T08:30:30.911Z,67
2022-09-05T08:31:30.969Z,65.9
2022-09-05T08:32:34.754Z,65.5
2022-09-05T08:33:30.923Z,66.1
2022-09-05T08:34:44.131Z,66.4
2022-09-05T08:35:30.943Z,64.8
2022-09-05T08:36:30.950Z,65.2
2022-09-05T08:37:30.971Z,64.5
2022-09-05T08:38:40.664Z,64.6
2022-09-05T08:39:30.948Z,63.9
2022-09-05T08:40:30.922Z,63.2
2022-09-05T08:41:49.353Z,62.6
2022-09-05T08:42:30.923Z,62.6
2022-09-05T08:46:37.717Z,62.3
2022-09-05T08:46:39.520Z,61.4
2022-09-05T08:46:42.371Z,60.6
2022-09-05T08:46:44.586Z,61.9
2022-09-05T08:47:33.034Z,59
2022-09-05T08:48:30.919Z,59.7
2022-09-05T08:49:36.872Z,60.7
2022-09-05T08:50:30.941Z,60.6
2022-09-05T08:51:30.924Z,59.6
2022-09-05T08:52:30.971Z,59.3
2022-09-05T08:53:46.196Z,59.8
2022-09-05T08:54:30.917Z,58.5
2022-09-05T08:55:30.919Z,58.2
2022-09-05T08:56:30.931Z,59.6
2022-09-05T08:57:30.924Z,57.8
2022-09-05T08:58:30.926Z,58.2
2022-09-05T08:59:32.949Z,57.6
2022-09-05T09:00:31.340Z,57.5
2022-09-05T09:01:31.034Z,57.1
2022-09-05T09:02:46.864Z,57.4
2022-09-05T09:03:30.944Z,58
2022-09-05T09:05:00.717Z,57.1
2022-09-05T09:06:30.929Z,55.5
2022-09-05T09:07:50.865Z,56.4
2022-09-05T09:08:30.976Z,56
2022-09-05T09:09:30.923Z,56.7
2022-09-05T09:10:30.937Z,56.9
2022-09-05T09:11:30.948Z,56.2
2022-09-05T09:12:30.955Z,54.3
2022-09-05T09:13:30.924Z,53.6
2022-09-05T09:14:31.495Z,53.1
2022-09-05T09:15:30.960Z,51.6
2022-09-05T09:16:31.057Z,52.1
2022-09-05T09:17:30.939Z,50.7
2022-09-05T09:18:35.816Z,50
2022-09-05T09:19:30.934Z,51
2022-09-05T09:20:30.943Z,48.3
2022-09-05T09:21:31.020Z,49.4
2022-09-05T09:22:30.923Z,49.8
2022-09-05T09:23:32.613Z,48.9
2022-09-05T09:24:30.974Z,49.8
2022-09-05T09:25:33.902Z,46.5
2022-09-05T09:26:30.938Z,46.3
2022-09-05T09:27:57.764Z,43.5
2022-09-05T09:28:48.874Z,42.3
2022-09-05T09:29:31.001Z,44.4
2022-09-05T09:30:30.982Z,43.2
2022-09-05T09:31:31.034Z,43.6
2022-09-05T09:32:30.983Z,43.7
2022-09-05T09:33:30.951Z,39.2
2022-09-05T09:34:30.938Z,40.6
2022-09-05T09:35:30.995Z,39
2022-09-05T09:36:30.935Z,40.2
2022-09-05T09:37:49.902Z,41.1
2022-09-05T09:38:30.929Z,41.9
2022-09-05T09:39:38.283Z,42.6
2022-09-05T09:40:30.950Z,43.4
2022-09-05T09:41:30.955Z,43.4
2022-09-05T09:42:33.463Z,43.8
2022-09-05T09:43:30.933Z,42.2
2022-09-05T09:44:30.954Z,41.1
2022-09-05T09:45:30.980Z,40.6
2022-09-05T09:46:30.993Z,40
2022-09-05T09:47:30.988Z,40.3
2022-09-05T09:48:30.933Z,42.1
2022-09-05T09:49:31.035Z,43.3
2022-09-05T09:50:30.951Z,41.5
2022-09-05T09:51:31.063Z,42.2
2022-09-05T09:52:31.174Z,43.3
2022-09-05T09:53:36.901Z,42.6
2022-09-05T09:54:31.076Z,41.3
2022-09-05T09:55:31.067Z,40.3
2022-09-05T09:56:31.172Z,39.9
2022-09-05T09:57:31.171Z,39.8
2022-09-05T09:58:31.423Z,39.9
2022-09-05T09:59:31.276Z,40.8
2022-09-05T10:00:31.154Z,41.3
2022-09-05T10:01:36.603Z,41
2022-09-05T10:04:30.999Z,40
2022-09-05T10:08:34.586Z,40.6
2022-09-05T10:10:33.529Z,40.7
2022-09-05T10:10:36.107Z,41
2022-09-05T10:10:51.336Z,40.8
2022-09-05T10:10:51.629Z,41.1
2022-09-05T10:10:51.895Z,39.4
2022-09-05T10:10:53.747Z,40.7
2022-09-05T10:10:59.755Z,40.7
2022-09-05T10:11:54.129Z,39.9
2022-09-05T10:12:30.947Z,40.1
2022-09-05T10:13:30.956Z,38.8
2022-09-05T10:14:49.391Z,40.5
2022-09-05T10:15:32.459Z,41.6
2022-09-05T10:16:31.042Z,40.7
2022-09-05T10:17:30.973Z,41.8
2022-09-05T10:18:31.659Z,41.7
2022-09-05T10:20:30.952Z,41.2
2022-09-05T10:21:30.969Z,39.8
2022-09-05T10:22:36.690Z,39.8
2022-09-05T10:23:30.943Z,39.4
2022-09-05T10:24:30.944Z,38.4
2022-09-05T10:25:30.999Z,38.9
2022-09-05T10:26:30.997Z,38.6
2022-09-05T10:27:30.962Z,38.8
2022-09-05T10:28:30.968Z,38.8
2022-09-05T10:29:36.914Z,39.6
2022-09-05T10:31:41.186Z,40.6
2022-09-05T10:33:16.965Z,40.6
2022-09-05T10:35:06.117Z,40
2022-09-05T10:35:13.679Z,39.1
2022-09-05T10:35:17.845Z,39.5
2022-09-05T10:35:31.415Z,37.8
2022-09-05T10:36:31.058Z,37.3
2022-09-05T10:37:30.971Z,37.4
2022-09-05T10:38:30.979Z,38.5
2022-09-05T10:39:31.022Z,38.7
2022-09-05T10:40:30.959Z,38.1
2022-09-05T10:41:30.994Z,38
2022-09-05T10:42:30.962Z,39.4
2022-09-05T10:43:30.964Z,38.8
2022-09-05T10:44:30.962Z,38
2022-09-05T10:45:38.207Z,36.9
2022-09-05T10:46:50.130Z,35.9
2022-09-05T10:47:30.998Z,35.6
2022-09-05T10:48:30.991Z,37.3
2022-09-05T10:49:31.001Z,37.5
2022-09-05T10:50:30.960Z,36.6
2022-09-05T10:51:30.990Z,37.4
2022-09-05T10:52:30.954Z,37.1
2022-09-05T10:53:39.117Z,37.1
2022-09-05T10:54:30.969Z,36.7
2022-09-05T10:55:30.971Z,36.1
2022-09-05T10:56:30.995Z,35.4
2022-09-05T10:57:31.035Z,35.5
2022-09-05T10:58:50.756Z,35.2
2022-09-05T11:02:19.384Z,34.8
2022-09-05T11:02:22.646Z,34
2022-09-05T11:02:24.442Z,35.1
2022-09-05T11:02:36.496Z,34.1
2022-09-05T11:03:31.012Z,34.4
2022-09-05T11:04:31.014Z,34.6
2022-09-05T11:05:31.090Z,33.8
2022-09-05T11:06:31.103Z,35.1
2022-09-05T11:07:31.079Z,35.3
2022-09-05T11:08:30.969Z,34.6
2022-09-05T11:09:30.955Z,34
2022-09-05T11:10:30.976Z,33.3
2022-09-05T11:11:34.883Z,32.7
2022-09-05T11:12:31.008Z,32.4
2022-09-05T11:13:30.957Z,32.7
2022-09-05T11:14:30.971Z,33.5
2022-09-05T11:15:31.084Z,34.5
2022-09-05T11:16:31.087Z,33.8
2022-09-05T11:17:30.981Z,33.4
2022-09-05T11:18:55.002Z,33.3
2022-09-05T11:19:30.961Z,31.9
2022-09-05T11:20:35.374Z,32.3
2022-09-05T11:21:30.963Z,36.1
2022-09-05T11:22:30.986Z,34.7
2022-09-05T11:23:30.955Z,35.4
2022-09-05T11:24:30.961Z,33.9
2022-09-05T11:25:40.410Z,33.4
2022-09-05T11:26:30.968Z,33.2
2022-09-05T11:27:31.008Z,34.3
2022-09-05T11:28:31.113Z,33.4
2022-09-05T11:29:31.155Z,33.6
2022-09-05T11:30:34.424Z,32.4
2022-09-05T11:31:39.048Z,32.2
2022-09-05T11:34:58.736Z,32.3
2022-09-05T11:39:47.069Z,32.9
2022-09-05T11:39:53.322Z,33.8
2022-09-05T11:40:00.458Z,32.4
2022-09-05T11:40:06.456Z,32.6
2022-09-05T11:40:06.719Z,33.1
2022-09-05T11:40:07.555Z,33.9
2022-09-05T11:40:10.679Z,32
2022-09-05T11:40:45.158Z,34
2022-09-05T11:41:31.093Z,33.7
2022-09-05T11:42:31.123Z,32.4
2022-09-05T11:43:31.042Z,31.1
2022-09-05T11:44:31.027Z,31
2022-09-05T11:45:30.976Z,31.3
2022-09-05T11:46:31.015Z,31.6
2022-09-05T11:47:37.056Z,31.5
2022-09-05T11:48:31.000Z,31.3
2022-09-05T11:49:30.986Z,31.9
2022-09-05T11:50:30.969Z,31.5
2022-09-05T11:51:34.020Z,32.3
2022-09-05T11:52:31.315Z,32
2022-09-05T11:53:30.976Z,32.4
2022-09-05T11:54:30.978Z,32.6
2022-09-05T11:55:30.985Z,33.4
2022-09-05T11:56:30.984Z,34.2
2022-09-05T11:57:32.487Z,33.5
2022-09-05T11:58:45.171Z,34
2022-09-05T11:59:33.550Z,33.5
2022-09-05T12:00:34.267Z,32.7
2022-09-05T12:02:31.011Z,30.8
2022-09-05T12:03:57.753Z,29.6
2022-09-05T12:04:31.565Z,30.3
2022-09-05T12:05:48.291Z,28.7
2022-09-05T12:07:32.191Z,29.2
2022-09-05T12:08:30.992Z,28.6
2022-09-05T12:09:31.148Z,27.5
2022-09-05T12:10:47.971Z,27.6
2022-09-05T12:11:30.983Z,27.9
2022-09-05T12:12:41.084Z,27
2022-09-05T12:13:30.989Z,27.2
2022-09-05T12:14:31.052Z,27.4
2022-09-05T12:15:31.029Z,26.1
2022-09-05T12:16:31.027Z,26.4
2022-09-05T12:17:35.025Z,27.5
2022-09-05T12:18:31.148Z,26.8
2022-09-05T12:19:30.989Z,27.5
2022-09-05T12:20:33.696Z,27.3
2022-09-05T12:21:31.700Z,26.5
2022-09-05T12:22:31.068Z,27
2022-09-05T12:23:53.728Z,26.8
2022-09-05T12:25:24.865Z,26.9
2022-09-05T12:27:38.102Z,27.4
2022-09-05T12:27:39.696Z,27.5
2022-09-05T12:27:41.088Z,27.6
2022-09-05T12:29:33.484Z,27.6
2022-09-05T12:29:36.130Z,26.7
2022-09-05T12:30:42.363Z,26.1
2022-09-05T12:33:07.533Z,26.4
2022-09-05T12:33:43.826Z,25.9
2022-09-05T12:36:01.579Z,25.8
2022-09-05T12:36:08.506Z,26.9
2022-09-05T12:36:10.066Z,26.6
2022-09-05T12:39:56.015Z,26
2022-09-05T12:40:28.720Z,25
2022-09-05T12:40:43.517Z,25.6
2022-09-05T12:40:58.479Z,25.3
2022-09-05T12:41:35.259Z,24.9
2022-09-05T12:41:46.269Z,24.3
2022-09-05T12:42:39.909Z,25.2
2022-09-05T12:44:13.856Z,23.8
2022-09-05T12:44:41.481Z,24.3
2022-09-05T12:45:37.561Z,24.5
2022-09-05T12:46:31.034Z,24.2
2022-09-05T12:47:31.009Z,24.5
2022-09-05T12:48:38.987Z,24.6
2022-09-05T12:49:36.132Z,24
2022-09-05T12:50:31.060Z,23.5
2022-09-05T12:51:46.097Z,24
2022-09-05T12:52:31.112Z,24.4
2022-09-05T12:53:31.175Z,24.8
2022-09-05T12:54:33.779Z,25.2
2022-09-05T12:55:31.052Z,23.7
2022-09-05T12:57:35.983Z,23.4
2022-09-05T13:00:50.910Z,24.6
2022-09-05T13:02:57.342Z,24.1
2022-09-05T13:03:01.752Z,23.4
2022-09-05T13:03:03.263Z,25
2022-09-05T13:03:07.069Z,22.4
2022-09-05T13:03:14.547Z,23.6
2022-09-05T13:03:31.622Z,21.8
2022-09-05T13:04:32.871Z,22.5
2022-09-05T13:05:31.108Z,22.7
2022-09-05T13:06:31.211Z,21.4
2022-09-05T13:07:31.001Z,22.1
2022-09-05T13:08:31.057Z,22.1
2022-09-05T13:10:30.915Z,22.5
2022-09-05T13:13:30.597Z,23.1
2022-09-05T13:14:48.155Z,23.5
2022-09-05T13:14:50.670Z,23
2022-09-05T13:14:54.537Z,22.2
2022-09-05T13:14:57.343Z,23
2022-09-05T13:15:31.384Z,21.4
2022-09-05T13:16:31.111Z,21.3
2022-09-05T13:17:31.061Z,21.6
2022-09-05T13:18:31.011Z,21.1
2022-09-05T13:19:31.009Z,21.3
2022-09-05T13:20:31.022Z,20.6
2022-09-05T13:21:31.035Z,20.6
2022-09-05T13:22:31.034Z,20.9
2022-09-05T13:23:31.031Z,20.2
2022-09-05T13:24:31.063Z,20.4
2022-09-05T13:25:31.092Z,20.1
2022-09-05T13:26:31.037Z,20.4
2022-09-05T13:27:31.014Z,21.1
2022-09-05T13:28:31.027Z,21.7
2022-09-05T13:29:35.121Z,20.8
2022-09-05T13:33:06.009Z,21.9
2022-09-05T13:38:03.134Z,20.6
2022-09-05T13:38:04.485Z,19.8
2022-09-05T13:38:05.479Z,20.5
2022-09-05T13:38:07.747Z,20.4
2022-09-05T13:38:12.827Z,19.6
2022-09-05T13:38:14.180Z,20.2
2022-09-05T13:38:15.896Z,20.3
2022-09-05T13:38:47.496Z,20.1
2022-09-05T13:39:31.456Z,20.6
2022-09-05T13:40:31.567Z,21.4